Time;durP1;ratioP1;P1;durP2;ratioP2;P2;SDS_P1;SDS_P2;PMS_P1;PMS_P2;Temp;Humidity;BMP_temperature;BMP_pressure;BME280_temperature;BME280_humidity;BME280_pressure;Samples;Min_cycle;Max_cycle;Signal;HPM_P1;HPM_P2
2022/06/23 00:00:59;;;;;;;;;24.25;24.25;;;;;;;;5049418;28;8835;-79
2022/06/23 00:03:29;;;;;;;;;20.00;18.25;;;;;;;;5042460;28;8899;-83
2022/06/23 00:06:01;;;;;;;;;18.25;18.25;;;;;;;;5039388;28;8849;-83
2022/06/23 00:08:29;;;;;;;;;23.25;23.25;;;;;;;;5046214;28;8894;-81
2022/06/23 00:10:58;;;;;;;;;22.00;20.50;;;;;;;;5044690;28;9776;-80
2022/06/23 00:13:32;;;;;;;;;21.75;20.00;;;;;;;;5043074;28;8882;-83
2022/06/23 00:15:59;;;;;;;;;25.50;22.00;;;;;;;;5042755;28;8863;-82
2022/06/23 00:18:29;;;;;;;;;23.75;21.25;;;;;;;;5042028;28;8887;-79
2022/06/23 00:21:02;;;;;;;;;22.25;22.00;;;;;;;;5041428;28;8887;-83
2022/06/23 00:23:31;;;;;;;;;23.25;22.25;;;;;;;;5045882;28;8923;-84
2022/06/23 00:26:02;;;;;;;;;21.50;20.50;;;;;;;;5045403;28;8885;-79
2022/06/23 00:28:32;;;;;;;;;19.50;17.75;;;;;;;;5046298;28;8867;-84
2022/06/23 00:31:02;;;;;;;;;22.00;21.50;;;;;;;;5045479;28;9880;-82
2022/06/23 00:33:31;;;;;;;;;19.25;19.25;;;;;;;;5042315;28;9114;-82
2022/06/23 00:36:01;;;;;;;;;21.25;20.50;;;;;;;;5043720;28;8927;-80
2022/06/23 00:38:31;;;;;;;;;23.25;20.75;;;;;;;;5045820;28;8878;-79
2022/06/23 00:41:00;;;;;;;;;20.50;20.50;;;;;;;;5045835;28;8884;-81
2022/06/23 00:43:29;;;;;;;;;19.75;19.75;;;;;;;;5041886;28;8872;-81
2022/06/23 00:46:05;;;;;;;;;24.25;22.25;;;;;;;;5041265;28;8863;-81
2022/06/23 00:48:38;;;;;;;;;21.50;19.50;;;;;;;;5040605;28;8939;-83
2022/06/23 00:51:12;;;;;;;;;22.50;22.50;;;;;;;;5045314;28;8878;-82
2022/06/23 00:53:45;;;;;;;;;23.25;22.50;;;;;;;;5044046;28;8887;-78
2022/06/23 00:56:24;;;;;;;;;20.50;20.50;;;;;;;;5042740;28;8881;-81
2022/06/23 00:58:57;;;;;;;;;24.75;22.50;;;;;;;;5049347;28;8928;-80
2022/06/23 01:01:27;;;;;;;;;19.50;18.00;;;;;;;;5041963;28;8840;-83
2022/06/23 01:04:00;;;;;;;;;16.00;14.50;;;;;;;;5042192;28;8885;-82
2022/06/23 01:06:36;;;;;;;;;20.00;20.00;;;;;;;;5038778;28;8945;-81
2022/06/23 01:09:12;;;;;;;;;18.75;17.75;;;;;;;;5043595;28;8883;-78
2022/06/23 01:11:43;;;;;;;;;21.00;21.00;;;;;;;;5042076;28;8873;-86
2022/06/23 01:14:17;;;;;;;;;17.00;17.00;;;;;;;;5040778;28;8853;-80
2022/06/23 01:16:47;;;;;;;;;21.00;16.50;;;;;;;;5040714;28;8900;-85
2022/06/23 01:19:46;;;;;;;;;18.75;16.75;;;;;;;;5038755;28;8886;-79
2022/06/23 01:22:25;;;;;;;;;18.75;17.25;;;;;;;;5042605;28;8890;-82
2022/06/23 01:24:59;;;;;;;;;16.00;16.00;;;;;;;;5043958;28;9009;-82
2022/06/23 01:27:50;;;;;;;;;19.50;19.50;;;;;;;;5041661;28;8885;-86
2022/06/23 01:30:21;;;;;;;;;14.75;14.75;;;;;;;;5047228;28;8879;-86
2022/06/23 01:32:53;;;;;;;;;19.75;18.25;;;;;;;;5043493;28;8863;-80
2022/06/23 01:35:28;;;;;;;;;19.75;19.25;;;;;;;;5048854;28;9009;-78
2022/06/23 01:37:59;;;;;;;;;19.25;16.00;;;;;;;;5043710;28;9625;-80
2022/06/23 01:40:30;;;;;;;;;18.00;17.00;;;;;;;;5047023;28;8898;-84
2022/06/23 01:43:01;;;;;;;;;15.00;13.00;;;;;;;;5046029;28;8879;-79
2022/06/23 01:45:35;;;;;;;;;12.25;12.25;;;;;;;;5041626;28;8858;-85
2022/06/23 01:48:08;;;;;;;;;15.00;15.00;;;;;;;;5046673;28;8876;-81
2022/06/23 01:50:42;;;;;;;;;22.00;19.50;;;;;;;;5046956;28;8847;-79
2022/06/23 01:53:27;;;;;;;;;24.50;24.50;;;;;;;;5044398;28;8886;-85
2022/06/23 01:56:05;;;;;;;;;17.75;17.75;;;;;;;;5043607;28;8867;-80
2022/06/23 01:58:39;;;;;;;;;17.00;17.00;;;;;;;;5044262;28;8874;-80
2022/06/23 02:01:11;;;;;;;;;19.00;17.50;;;;;;;;5036703;28;8906;-82
2022/06/23 02:03:42;;;;;;;;;17.00;16.00;;;;;;;;5065101;28;8899;-81
2022/06/23 02:06:18;;;;;;;;;20.00;16.25;;;;;;;;5065359;28;8879;-80
2022/06/23 02:08:51;;;;;;;;;16.25;16.25;;;;;;;;5062760;28;8875;-84
2022/06/23 02:11:21;;;;;;;;;20.00;18.75;;;;;;;;5069042;28;8862;-84
2022/06/23 02:13:52;;;;;;;;;19.75;18.75;;;;;;;;5062890;28;9724;-80
2022/06/23 02:16:25;;;;;;;;;18.25;16.75;;;;;;;;5060316;28;8866;-80
2022/06/23 02:18:58;;;;;;;;;17.50;15.75;;;;;;;;5066972;28;8879;-81
2022/06/23 02:21:31;;;;;;;;;13.75;13.75;;;;;;;;5067962;28;8854;-78
2022/06/23 02:24:03;;;;;;;;;15.50;15.25;;;;;;;;5066104;28;8872;-82
2022/06/23 02:26:34;;;;;;;;;15.25;15.25;;;;;;;;5062231;28;8875;-80
2022/06/23 02:29:06;;;;;;;;;17.75;16.00;;;;;;;;5065370;28;8898;-82
2022/06/23 02:31:40;;;;;;;;;19.75;17.75;;;;;;;;5063556;28;8855;-82
2022/06/23 02:34:15;;;;;;;;;20.50;17.50;;;;;;;;5062735;28;8860;-83
2022/06/23 02:37:08;;;;;;;;;16.75;16.75;;;;;;;;5066087;28;8875;-81
2022/06/23 02:39:44;;;;;;;;;15.00;15.00;;;;;;;;5060608;28;8913;-82
2022/06/23 02:42:24;;;;;;;;;19.00;17.75;;;;;;;;5065335;28;8900;-84
2022/06/23 02:45:08;;;;;;;;;17.50;16.75;;;;;;;;5063673;28;8887;-83
2022/06/23 02:47:58;;;;;;;;;16.00;16.00;;;;;;;;5062606;28;8848;-79
2022/06/23 02:50:39;;;;;;;;;21.00;19.75;;;;;;;;5064588;28;9666;-82
2022/06/23 02:53:31;;;;;;;;;15.75;15.75;;;;;;;;5063384;28;8882;-84
2022/06/23 02:56:28;;;;;;;;;18.75;17.50;;;;;;;;5065438;28;8868;-78
2022/06/23 02:59:03;;;;;;;;;16.00;14.75;;;;;;;;5060070;28;8878;-83
2022/06/23 03:01:35;;;;;;;;;25.00;21.75;;;;;;;;5063048;28;8902;-82
2022/06/23 03:04:10;;;;;;;;;24.00;19.00;;;;;;;;5064422;28;8904;-85
2022/06/23 03:06:44;;;;;;;;;19.25;16.50;;;;;;;;5062224;28;9074;-84
2022/06/23 03:09:16;;;;;;;;;19.75;18.50;;;;;;;;5065485;28;8994;-83
2022/06/23 03:11:55;;;;;;;;;17.50;17.00;;;;;;;;5062261;28;8941;-82
2022/06/23 03:14:32;;;;;;;;;14.25;13.00;;;;;;;;5062311;28;8866;-83
2022/06/23 03:17:04;;;;;;;;;17.50;17.50;;;;;;;;5064803;28;8874;-82
2022/06/23 03:19:35;;;;;;;;;17.50;16.25;;;;;;;;5064565;28;8870;-83
2022/06/23 03:22:07;;;;;;;;;16.75;16.75;;;;;;;;5065056;28;8885;-79
2022/06/23 03:24:38;;;;;;;;;17.75;17.75;;;;;;;;5062677;28;8985;-78
2022/06/23 03:27:12;;;;;;;;;13.25;13.25;;;;;;;;5062641;28;8897;-81
2022/06/23 03:29:45;;;;;;;;;14.50;14.50;;;;;;;;5062105;28;8870;-77
2022/06/23 03:32:18;;;;;;;;;18.75;16.00;;;;;;;;5061539;28;8837;-79
2022/06/23 03:34:50;;;;;;;;;15.00;14.50;;;;;;;;5064017;28;8934;-79
2022/06/23 03:37:25;;;;;;;;;22.25;18.25;;;;;;;;5061991;28;9436;-80
2022/06/23 03:42:57;;;;;;;;;19.75;16.50;;;;;;;;5062152;28;8836;-84
2022/06/23 03:45:31;;;;;;;;;17.75;17.00;;;;;;;;5056462;28;8922;-83
2022/06/23 03:48:03;;;;;;;;;21.00;20.75;;;;;;;;5067567;28;8918;-78
2022/06/23 03:50:38;;;;;;;;;20.00;20.00;;;;;;;;5063046;28;8848;-81
2022/06/23 03:53:13;;;;;;;;;23.25;23.25;;;;;;;;5062435;28;9722;-84
2022/06/23 03:55:44;;;;;;;;;23.50;21.50;;;;;;;;5059924;28;8879;-81
2022/06/23 03:58:16;;;;;;;;;22.25;22.25;;;;;;;;5068622;28;8881;-83
2022/06/23 04:00:46;;;;;;;;;22.75;22.25;;;;;;;;5062848;28;8775;-85
2022/06/23 04:03:23;;;;;;;;;24.25;22.25;;;;;;;;5062494;28;8872;-83
2022/06/23 04:06:22;;;;;;;;;22.00;20.75;;;;;;;;5062319;28;8872;-81
2022/06/23 04:09:00;;;;;;;;;21.50;20.75;;;;;;;;5061021;28;8852;-83
2022/06/23 04:11:44;;;;;;;;;25.75;24.25;;;;;;;;5064655;28;8862;-84
2022/06/23 04:14:18;;;;;;;;;30.50;29.25;;;;;;;;5060969;28;8917;-83
2022/06/23 04:16:49;;;;;;;;;25.25;24.00;;;;;;;;5065179;28;8891;-84
2022/06/23 04:19:21;;;;;;;;;22.50;22.50;;;;;;;;5062462;28;8859;-80
2022/06/23 04:21:57;;;;;;;;;24.50;24.50;;;;;;;;5062767;28;8888;-81
2022/06/23 04:24:26;;;;;;;;;29.00;25.25;;;;;;;;5063603;28;8894;-81
2022/06/23 04:26:56;;;;;;;;;28.75;25.50;;;;;;;;5062476;28;8834;-77
2022/06/23 04:29:27;;;;;;;;;26.75;25.00;;;;;;;;5062210;28;8991;-81
2022/06/23 04:31:58;;;;;;;;;29.50;25.50;;;;;;;;5061180;28;8834;-80
2022/06/23 04:34:29;;;;;;;;;26.75;26.75;;;;;;;;5064391;28;8887;-81
2022/06/23 04:36:59;;;;;;;;;28.75;28.75;;;;;;;;5062536;28;8884;-82
2022/06/23 04:39:32;;;;;;;;;25.75;25.75;;;;;;;;5065159;28;8888;-81
2022/06/23 04:42:01;;;;;;;;;24.25;23.25;;;;;;;;5063069;28;8870;-80
2022/06/23 04:44:31;;;;;;;;;24.75;24.75;;;;;;;;5062478;28;8880;-80
2022/06/23 04:47:00;;;;;;;;;29.75;29.75;;;;;;;;5057080;28;8862;-82
2022/06/23 04:49:32;;;;;;;;;37.00;29.50;;;;;;;;5065777;28;8894;-80
2022/06/23 04:52:04;;;;;;;;;24.00;24.00;;;;;;;;5058352;28;8902;-82
2022/06/23 04:54:35;;;;;;;;;28.50;26.50;;;;;;;;5065637;28;9757;-80
2022/06/23 04:57:10;;;;;;;;;28.25;25.75;;;;;;;;5062921;28;9588;-80
2022/06/23 04:59:41;;;;;;;;;25.00;25.00;;;;;;;;5063015;28;9028;-79
2022/06/23 05:02:21;;;;;;;;;29.25;27.50;;;;;;;;5063141;28;8793;-78
2022/06/23 05:04:55;;;;;;;;;25.75;25.75;;;;;;;;5062706;28;8880;-80
2022/06/23 05:07:28;;;;;;;;;28.75;25.75;;;;;;;;5063825;28;8870;-80
2022/06/23 05:09:58;;;;;;;;;27.25;24.00;;;;;;;;5065960;28;8989;-80
2022/06/23 05:12:29;;;;;;;;;24.75;23.50;;;;;;;;5065373;28;8890;-83
2022/06/23 05:15:01;;;;;;;;;25.50;24.75;;;;;;;;5066411;28;8900;-78
2022/06/23 05:17:31;;;;;;;;;29.75;27.75;;;;;;;;5066173;28;8864;-78
2022/06/23 05:20:00;;;;;;;;;25.75;24.25;;;;;;;;5066366;28;8856;-83
2022/06/23 05:22:33;;;;;;;;;25.00;21.50;;;;;;;;5063323;28;8890;-84
2022/06/23 05:25:14;;;;;;;;;24.75;23.25;;;;;;;;5066773;28;8873;-84
2022/06/23 05:27:45;;;;;;;;;24.00;21.00;;;;;;;;5065395;28;8850;-83
2022/06/23 05:30:25;;;;;;;;;21.00;20.50;;;;;;;;5062913;28;8867;-81
2022/06/23 05:32:56;;;;;;;;;19.75;19.25;;;;;;;;5063256;28;8835;-84
2022/06/23 05:35:26;;;;;;;;;17.75;16.25;;;;;;;;5065562;28;8872;-79
2022/06/23 05:38:00;;;;;;;;;20.50;19.25;;;;;;;;5063180;28;8890;-81
2022/06/23 05:40:31;;;;;;;;;17.00;14.00;;;;;;;;5059280;28;8855;-82
2022/06/23 05:43:01;;;;;;;;;17.25;16.00;;;;;;;;5059016;28;8860;-80
2022/06/23 05:45:30;;;;;;;;;14.00;14.00;;;;;;;;5065771;28;8856;-82
2022/06/23 05:47:59;;;;;;;;;13.50;13.50;;;;;;;;5061823;28;8888;-82
2022/06/23 05:50:30;;;;;;;;;9.75;9.75;;;;;;;;5062052;28;8912;-84
2022/06/23 05:53:02;;;;;;;;;10.50;10.50;;;;;;;;5063997;28;8869;-81
2022/06/23 05:55:35;;;;;;;;;13.00;11.00;;;;;;;;5063235;28;8882;-78
2022/06/23 05:58:11;;;;;;;;;10.75;10.75;;;;;;;;5066947;28;8855;-82
2022/06/23 06:00:45;;;;;;;;;10.50;10.25;;;;;;;;5066326;28;8912;-83
2022/06/23 06:03:16;;;;;;;;;11.00;11.00;;;;;;;;5059985;28;8860;-83
2022/06/23 06:05:46;;;;;;;;;10.00;7.25;;;;;;;;5060644;28;8878;-82
2022/06/23 06:08:18;;;;;;;;;7.00;7.00;;;;;;;;5066371;28;8865;-87
2022/06/23 06:10:47;;;;;;;;;5.00;5.00;;;;;;;;5063653;28;8891;-88
2022/06/23 06:13:18;;;;;;;;;6.60;5.00;;;;;;;;5064652;28;8906;-82
2022/06/23 06:15:49;;;;;;;;;9.20;6.00;;;;;;;;5060173;28;8875;-82
2022/06/23 06:18:24;;;;;;;;;4.20;4.20;;;;;;;;5062929;28;8878;-88
2022/06/23 06:20:55;;;;;;;;;6.80;4.80;;;;;;;;5063225;28;8835;-81
2022/06/23 06:23:31;;;;;;;;;2.80;2.80;;;;;;;;5060269;28;8884;-82
2022/06/23 06:25:59;;;;;;;;;8.00;6.60;;;;;;;;5060918;28;8870;-86
2022/06/23 06:28:30;;;;;;;;;4.40;4.40;;;;;;;;5061784;28;8934;-84
2022/06/23 06:31:04;;;;;;;;;4.20;4.20;;;;;;;;5065520;28;8943;-84
2022/06/23 06:33:39;;;;;;;;;6.00;4.00;;;;;;;;5063557;28;8868;-84
2022/06/23 06:36:24;;;;;;;;;5.20;5.00;;;;;;;;5062118;28;8931;-88
2022/06/23 06:38:53;;;;;;;;;3.00;2.60;;;;;;;;5060040;28;8877;-83
2022/06/23 06:41:21;;;;;;;;;3.00;3.00;;;;;;;;5062536;28;8871;-87
2022/06/23 06:43:48;;;;;;;;;3.60;3.60;;;;;;;;5061081;28;8858;-84
2022/06/23 06:46:16;;;;;;;;;4.60;4.60;;;;;;;;5060823;28;8857;-87
2022/06/23 06:48:43;;;;;;;;;2.80;1.80;;;;;;;;5063941;28;8890;-77
2022/06/23 06:51:13;;;;;;;;;4.00;4.00;;;;;;;;5063512;28;8870;-75
2022/06/23 06:53:43;;;;;;;;;3.20;3.20;;;;;;;;5059949;28;8875;-76
2022/06/23 06:56:17;;;;;;;;;4.00;4.00;;;;;;;;5057186;28;8887;-75
2022/06/23 06:58:50;;;;;;;;;2.80;2.80;;;;;;;;5059009;28;8886;-77
2022/06/23 07:01:21;;;;;;;;;5.00;5.00;;;;;;;;5059408;28;8919;-77
2022/06/23 07:03:50;;;;;;;;;4.00;4.00;;;;;;;;5061169;28;8844;-76
2022/06/23 07:06:21;;;;;;;;;2.40;2.40;;;;;;;;5057561;28;8952;-77
2022/06/23 07:08:52;;;;;;;;;5.20;4.00;;;;;;;;5057361;28;8880;-75
2022/06/23 07:11:24;;;;;;;;;3.00;3.00;;;;;;;;5059626;28;8860;-75
2022/06/23 07:13:58;;;;;;;;;4.40;4.20;;;;;;;;5066439;28;8873;-75
2022/06/23 07:16:31;;;;;;;;;6.20;6.00;;;;;;;;5055915;28;8869;-75
2022/06/23 07:19:02;;;;;;;;;5.00;5.00;;;;;;;;5060188;28;9679;-78
2022/06/23 07:21:35;;;;;;;;;4.40;4.40;;;;;;;;5064877;28;8954;-77
2022/06/23 07:24:11;;;;;;;;;3.80;3.80;;;;;;;;5060859;28;8860;-75
2022/06/23 07:26:44;;;;;;;;;1.00;1.00;;;;;;;;5062237;28;8847;-74
2022/06/23 07:29:20;;;;;;;;;3.00;3.00;;;;;;;;5058944;28;8870;-75
2022/06/23 07:31:58;;;;;;;;;4.20;3.00;;;;;;;;5061938;28;8869;-75
2022/06/23 07:34:27;;;;;;;;;2.20;2.20;;;;;;;;5063355;28;8856;-74
2022/06/23 07:36:58;;;;;;;;;3.60;3.00;;;;;;;;5056050;28;8933;-74
2022/06/23 07:39:29;;;;;;;;;2.60;2.60;;;;;;;;5062190;28;8860;-75
2022/06/23 07:42:02;;;;;;;;;3.40;3.40;;;;;;;;5059088;28;8902;-75
2022/06/23 07:44:35;;;;;;;;;3.00;3.00;;;;;;;;5064173;28;9443;-76
2022/06/23 07:47:02;;;;;;;;;3.20;3.20;;;;;;;;5061345;28;8910;-76
2022/06/23 07:49:32;;;;;;;;;3.80;3.00;;;;;;;;5057359;28;8864;-78
2022/06/23 07:52:00;;;;;;;;;3.40;3.40;;;;;;;;5061707;28;8875;-76
2022/06/23 07:54:28;;;;;;;;;3.80;3.00;;;;;;;;5060675;28;8906;-75
2022/06/23 07:56:56;;;;;;;;;6.80;3.60;;;;;;;;5060643;28;8867;-75
2022/06/23 07:59:27;;;;;;;;;4.20;4.20;;;;;;;;5063338;28;8903;-75
2022/06/23 08:01:57;;;;;;;;;3.80;3.80;;;;;;;;5060040;28;8823;-74
2022/06/23 08:04:35;;;;;;;;;5.00;3.00;;;;;;;;5057897;28;8861;-75
2022/06/23 08:07:05;;;;;;;;;3.40;3.40;;;;;;;;5061961;28;9602;-75
2022/06/23 08:09:36;;;;;;;;;5.20;5.00;;;;;;;;5065941;28;8880;-74
2022/06/23 08:16:49;;;;;;;;;3.00;3.00;;;;;;;;5060051;28;8844;-74
2022/06/23 08:17:45;;;;;;;;;3.00;3.00;;;;;;;;5059197;28;8912;-75
2022/06/23 08:20:17;;;;;;;;;5.80;3.00;;;;;;;;5064802;28;8864;-73
2022/06/23 08:22:46;;;;;;;;;5.00;3.60;;;;;;;;5067098;28;8872;-72
2022/06/23 08:25:15;;;;;;;;;3.60;3.60;;;;;;;;5062658;28;8897;-73
2022/06/23 08:27:44;;;;;;;;;4.40;4.40;;;;;;;;5056132;28;8880;-72
2022/06/23 08:30:16;;;;;;;;;3.80;3.80;;;;;;;;5061499;28;8895;-71
2022/06/23 08:32:46;;;;;;;;;5.00;5.00;;;;;;;;5063296;28;8898;-72
2022/06/23 08:35:18;;;;;;;;;4.80;4.80;;;;;;;;5064037;28;8895;-72
2022/06/23 08:37:50;;;;;;;;;3.80;3.80;;;;;;;;5062233;28;8892;-73
2022/06/23 08:40:24;;;;;;;;;3.80;3.80;;;;;;;;5064717;28;9005;-72
2022/06/23 08:42:56;;;;;;;;;5.60;5.00;;;;;;;;5059733;28;8868;-72
2022/06/23 08:45:32;;;;;;;;;4.20;4.20;;;;;;;;5064993;28;8895;-73
2022/06/23 08:48:03;;;;;;;;;2.60;2.40;;;;;;;;5061842;28;8876;-73
2022/06/23 08:50:35;;;;;;;;;3.80;3.20;;;;;;;;5058653;28;8856;-73
2022/06/23 08:53:06;;;;;;;;;5.80;4.00;;;;;;;;5061723;28;8840;-73
2022/06/23 08:55:41;;;;;;;;;4.60;4.60;;;;;;;;5060460;28;8856;-74
2022/06/23 08:58:16;;;;;;;;;5.60;5.20;;;;;;;;5060222;28;9011;-72
2022/06/23 09:00:53;;;;;;;;;4.80;4.80;;;;;;;;5061321;28;8804;-74
2022/06/23 09:03:31;;;;;;;;;4.00;4.00;;;;;;;;5051226;28;9773;-74
2022/06/23 09:06:05;;;;;;;;;4.80;4.80;;;;;;;;5058011;28;8959;-73
2022/06/23 09:08:38;;;;;;;;;4.20;4.20;;;;;;;;5052844;28;8871;-74
2022/06/23 09:11:10;;;;;;;;;4.00;4.00;;;;;;;;5059444;28;8871;-73
2022/06/23 09:13:48;;;;;;;;;4.80;4.80;;;;;;;;5053733;28;8891;-74
2022/06/23 09:16:35;;;;;;;;;5.00;5.00;;;;;;;;5056952;28;8860;-74
2022/06/23 09:19:19;;;;;;;;;7.40;5.00;;;;;;;;5058039;28;8982;-73
2022/06/23 09:22:14;;;;;;;;;4.60;2.80;;;;;;;;5050462;28;8868;-73
2022/06/23 09:24:54;;;;;;;;;4.80;4.80;;;;;;;;5029313;28;8894;-74
2022/06/23 09:27:36;;;;;;;;;4.40;4.40;;;;;;;;5054844;28;8855;-74
2022/06/23 09:30:07;;;;;;;;;4.60;4.60;;;;;;;;5062133;28;8891;-73
2022/06/23 09:32:58;;;;;;;;;5.20;4.20;;;;;;;;5058399;28;8880;-73
2022/06/23 09:36:04;;;;;;;;;5.60;3.60;;;;;;;;5049647;28;8869;-74
2022/06/23 09:38:49;;;;;;;;;5.20;5.20;;;;;;;;5056602;28;9658;-73
2022/06/23 09:41:39;;;;;;;;;4.40;4.40;;;;;;;;5052882;28;8868;-74
2022/06/23 09:44:32;;;;;;;;;5.00;3.60;;;;;;;;5059858;28;8923;-74
2022/06/23 09:47:32;;;;;;;;;5.20;5.00;;;;;;;;5059784;28;8856;-74
2022/06/23 09:50:20;;;;;;;;;5.80;4.40;;;;;;;;5044088;28;9051;-73
2022/06/23 09:53:12;;;;;;;;;3.80;3.80;;;;;;;;5060291;28;8892;-73
2022/06/23 09:55:52;;;;;;;;;4.20;4.20;;;;;;;;5064484;28;8865;-74
2022/06/23 09:59:03;;;;;;;;;4.00;4.00;;;;;;;;5067204;28;8875;-74
2022/06/23 10:01:38;;;;;;;;;4.00;4.00;;;;;;;;5065476;28;8896;-74
2022/06/23 10:04:20;;;;;;;;;8.00;5.20;;;;;;;;5064578;28;8874;-74
2022/06/23 10:07:02;;;;;;;;;7.00;5.00;;;;;;;;5058485;28;8897;-74
2022/06/23 10:09:40;;;;;;;;;2.00;2.00;;;;;;;;5063314;28;8863;-74
2022/06/23 10:12:40;;;;;;;;;3.20;3.00;;;;;;;;5060493;28;8906;-73
2022/06/23 10:15:22;;;;;;;;;6.20;4.40;;;;;;;;5052229;28;8910;-75
2022/06/23 10:18:15;;;;;;;;;3.60;3.60;;;;;;;;5064588;28;8894;-72
2022/06/23 10:21:00;;;;;;;;;4.00;4.00;;;;;;;;5061192;28;8887;-73
2022/06/23 10:23:50;;;;;;;;;4.00;4.00;;;;;;;;5061162;28;8884;-72
2022/06/23 10:26:33;;;;;;;;;5.00;5.00;;;;;;;;5064687;28;8890;-73
2022/06/23 10:29:18;;;;;;;;;5.80;3.80;;;;;;;;5062637;28;8860;-75
2022/06/23 10:32:12;;;;;;;;;4.60;4.60;;;;;;;;5045760;28;8803;-73
2022/06/23 10:34:50;;;;;;;;;4.40;4.40;;;;;;;;5102329;27;8902;-78
2022/06/23 10:37:31;;;;;;;;;5.00;5.00;;;;;;;;5063653;28;8881;-78
2022/06/23 10:40:26;;;;;;;;;5.40;5.40;;;;;;;;5065766;28;8886;-78
2022/06/23 10:43:05;;;;;;;;;4.20;4.20;;;;;;;;5062293;28;8869;-78
2022/06/23 10:45:44;;;;;;;;;4.60;4.00;;;;;;;;5066433;28;9662;-78
2022/06/23 10:48:40;;;;;;;;;6.80;5.00;;;;;;;;5063033;28;8870;-79
2022/06/23 10:51:28;;;;;;;;;5.80;5.20;;;;;;;;5063392;28;8866;-80
2022/06/23 10:54:36;;;;;;;;;3.60;3.60;;;;;;;;5061825;28;8872;-79
2022/06/23 10:57:27;;;;;;;;;4.40;4.40;;;;;;;;5048154;28;8884;-79
2022/06/23 11:00:03;;;;;;;;;4.60;4.60;;;;;;;;5067007;28;9009;-77
2022/06/23 11:02:59;;;;;;;;;4.40;4.40;;;;;;;;5062688;28;8834;-79
2022/06/23 11:05:42;;;;;;;;;5.80;4.20;;;;;;;;5061888;28;8868;-79
2022/06/23 11:08:30;;;;;;;;;5.00;4.80;;;;;;;;5063816;28;8874;-80
2022/06/23 11:11:24;;;;;;;;;4.60;4.60;;;;;;;;5060203;28;8903;-79
2022/06/23 11:13:58;;;;;;;;;7.80;5.80;;;;;;;;5055064;28;8855;-82
2022/06/23 11:16:36;;;;;;;;;5.60;5.60;;;;;;;;5059681;28;8868;-80
2022/06/23 11:19:17;;;;;;;;;5.20;4.20;;;;;;;;5061502;28;8906;-81
2022/06/23 11:22:05;;;;;;;;;4.00;4.00;;;;;;;;5064320;28;8864;-81
2022/06/23 11:24:40;;;;;;;;;4.00;4.00;;;;;;;;5064736;28;8948;-82
2022/06/23 11:27:16;;;;;;;;;5.80;5.80;;;;;;;;5064382;28;9747;-82
2022/06/23 11:29:58;;;;;;;;;7.80;7.00;;;;;;;;5067453;28;9003;-82
2022/06/23 11:32:45;;;;;;;;;7.80;5.80;;;;;;;;5063901;28;8816;-81
2022/06/23 11:35:32;;;;;;;;;4.60;4.60;;;;;;;;5065042;28;8886;-80
2022/06/23 11:38:15;;;;;;;;;7.00;5.60;;;;;;;;5066159;28;8844;-80
2022/06/23 11:41:03;;;;;;;;;8.40;6.20;;;;;;;;5060179;28;8871;-79
2022/06/23 11:43:41;;;;;;;;;5.60;5.60;;;;;;;;5062055;28;8989;-81
2022/06/23 11:46:21;;;;;;;;;6.00;6.00;;;;;;;;5062638;28;8850;-83
2022/06/23 11:49:12;;;;;;;;;7.00;5.60;;;;;;;;5067544;28;8858;-82
2022/06/23 11:52:03;;;;;;;;;4.00;4.00;;;;;;;;5067371;28;8894;-80
2022/06/23 11:54:50;;;;;;;;;6.20;4.80;;;;;;;;5060879;28;8877;-81
2022/06/23 11:57:43;;;;;;;;;4.00;4.00;;;;;;;;5059501;28;8994;-79
2022/06/23 12:00:13;;;;;;;;;8.00;5.60;;;;;;;;5061078;28;8853;-81
2022/06/23 12:02:51;;;;;;;;;4.00;4.00;;;;;;;;5063490;28;9075;-83
2022/06/23 12:05:27;;;;;;;;;4.40;4.40;;;;;;;;5061820;28;8873;-80
2022/06/23 12:08:11;;;;;;;;;5.60;5.60;;;;;;;;5062083;28;8883;-80
2022/06/23 12:10:39;;;;;;;;;7.60;6.00;;;;;;;;5094914;27;8844;-80
2022/06/23 12:13:07;;;;;;;;;4.80;4.80;;;;;;;;5062972;28;8858;-79
2022/06/23 12:15:39;;;;;;;;;5.20;5.20;;;;;;;;5065426;28;8974;-81
2022/06/23 12:18:13;;;;;;;;;6.80;6.60;;;;;;;;5065056;28;8890;-80
2022/06/23 12:20:47;;;;;;;;;5.20;4.00;;;;;;;;5062538;28;8873;-82
2022/06/23 12:23:18;;;;;;;;;5.60;5.60;;;;;;;;5061378;28;8883;-80
2022/06/23 12:25:54;;;;;;;;;4.20;4.20;;;;;;;;5067058;28;9649;-80
2022/06/23 12:28:28;;;;;;;;;4.00;4.00;;;;;;;;5060594;28;8980;-79
2022/06/23 12:31:01;;;;;;;;;6.00;6.00;;;;;;;;5064507;28;8820;-80
2022/06/23 12:33:36;;;;;;;;;4.20;4.20;;;;;;;;5060054;28;8906;-80
2022/06/23 12:36:10;;;;;;;;;4.80;4.80;;;;;;;;5068562;28;8906;-79
2022/06/23 12:38:42;;;;;;;;;5.00;5.00;;;;;;;;5062631;28;8874;-80
2022/06/23 12:41:13;;;;;;;;;4.00;4.00;;;;;;;;5061487;28;8839;-79
2022/06/23 12:43:49;;;;;;;;;4.80;4.80;;;;;;;;5066146;28;8985;-80
2022/06/23 12:46:26;;;;;;;;;4.80;4.80;;;;;;;;5061431;28;8963;-79
2022/06/23 12:49:07;;;;;;;;;5.80;5.80;;;;;;;;5064813;28;8883;-79
2022/06/23 12:51:45;;;;;;;;;4.60;4.00;;;;;;;;5064624;28;8993;-80
2022/06/23 12:54:27;;;;;;;;;4.60;4.60;;;;;;;;5059404;28;8851;-83
2022/06/23 12:57:11;;;;;;;;;5.00;5.00;;;;;;;;5056116;28;9589;-78
2022/06/23 12:59:46;;;;;;;;;8.00;5.20;;;;;;;;5053458;28;8870;-79
2022/06/23 13:02:27;;;;;;;;;6.00;5.40;;;;;;;;5063660;28;8868;-87
2022/06/23 13:05:03;;;;;;;;;5.00;5.00;;;;;;;;5060027;28;8850;-82
2022/06/23 13:07:35;;;;;;;;;4.40;4.40;;;;;;;;5054792;28;8977;-80
2022/06/23 13:10:09;;;;;;;;;3.20;3.20;;;;;;;;5094223;28;8851;-80
2022/06/23 13:12:41;;;;;;;;;4.00;4.00;;;;;;;;5062038;28;8884;-81
2022/06/23 13:15:14;;;;;;;;;6.40;5.40;;;;;;;;5057983;28;9714;-81
2022/06/23 13:17:45;;;;;;;;;4.40;4.40;;;;;;;;5060515;28;8992;-80
2022/06/23 13:20:25;;;;;;;;;5.40;5.40;;;;;;;;5059447;28;8875;-81
2022/06/23 13:22:57;;;;;;;;;4.80;4.80;;;;;;;;5059471;28;8842;-80
2022/06/23 13:25:29;;;;;;;;;4.00;4.00;;;;;;;;5059016;28;8941;-80
2022/06/23 13:27:57;;;;;;;;;4.40;4.40;;;;;;;;5064146;28;9020;-80
2022/06/23 13:30:29;;;;;;;;;7.00;3.80;;;;;;;;5063737;28;8790;-82
2022/06/23 13:33:04;;;;;;;;;6.00;6.00;;;;;;;;5065239;28;8870;-80
2022/06/23 13:35:39;;;;;;;;;9.00;5.60;;;;;;;;5064956;28;10231;-81
2022/06/23 13:38:17;;;;;;;;;4.00;4.00;;;;;;;;5063393;28;8870;-81
2022/06/23 13:40:49;;;;;;;;;4.00;4.00;;;;;;;;5062583;28;8871;-81
2022/06/23 13:43:25;;;;;;;;;3.40;3.40;;;;;;;;5094141;27;8931;-82
2022/06/23 13:45:57;;;;;;;;;4.80;4.80;;;;;;;;5059048;28;8900;-81
2022/06/23 13:48:31;;;;;;;;;4.80;4.80;;;;;;;;5093418;27;8880;-80
2022/06/23 13:51:04;;;;;;;;;5.00;5.00;;;;;;;;5062586;28;8899;-81
2022/06/23 13:53:37;;;;;;;;;4.40;4.40;;;;;;;;5065549;28;8960;-82
2022/06/23 13:56:09;;;;;;;;;4.60;4.60;;;;;;;;5061548;28;8889;-80
2022/06/23 13:58:44;;;;;;;;;5.60;4.00;;;;;;;;5063258;28;8876;-79
2022/06/23 14:01:17;;;;;;;;;3.00;3.00;;;;;;;;5061565;28;8807;-79
2022/06/23 14:03:52;;;;;;;;;4.80;4.80;;;;;;;;5059042;28;8895;-78
2022/06/23 14:06:24;;;;;;;;;5.00;5.00;;;;;;;;5057796;28;8982;-81
2022/06/23 14:08:57;;;;;;;;;6.20;6.20;;;;;;;;5062992;28;8862;-81
2022/06/23 14:11:29;;;;;;;;;6.00;6.00;;;;;;;;5063682;28;8900;-81
2022/06/23 14:14:03;;;;;;;;;5.60;5.60;;;;;;;;5062731;28;8866;-80
2022/06/23 14:16:34;;;;;;;;;6.80;6.80;;;;;;;;5061406;28;9015;-79
2022/06/23 14:19:05;;;;;;;;;6.40;6.40;;;;;;;;5060787;28;8903;-80
2022/06/23 14:21:38;;;;;;;;;6.40;6.40;;;;;;;;5059906;28;8949;-80
2022/06/23 14:24:13;;;;;;;;;6.40;6.40;;;;;;;;5064991;28;8843;-80
2022/06/23 14:26:47;;;;;;;;;6.00;6.00;;;;;;;;5058246;28;8897;-81
2022/06/23 14:29:20;;;;;;;;;5.00;3.00;;;;;;;;5062297;28;8835;-78
2022/06/23 14:31:53;;;;;;;;;5.00;5.00;;;;;;;;5060400;28;8839;-79
2022/06/23 14:34:24;;;;;;;;;4.00;4.00;;;;;;;;5065831;28;8868;-80
2022/06/23 14:36:58;;;;;;;;;5.60;5.60;;;;;;;;5061346;28;8877;-79
2022/06/23 14:39:33;;;;;;;;;4.40;4.40;;;;;;;;5062053;28;8862;-79
2022/06/23 14:42:24;;;;;;;;;5.00;5.00;;;;;;;;5058155;28;9612;-81
2022/06/23 14:45:19;;;;;;;;;6.00;5.00;;;;;;;;5061470;28;8878;-79
2022/06/23 14:48:01;;;;;;;;;5.40;5.40;;;;;;;;5061512;28;8879;-84
2022/06/23 14:50:37;;;;;;;;;7.60;5.80;;;;;;;;5063347;28;8977;-84
2022/06/23 14:53:13;;;;;;;;;4.20;4.20;;;;;;;;5058495;28;9000;-81
2022/06/23 14:55:48;;;;;;;;;6.60;6.60;;;;;;;;5064640;28;8890;-84
2022/06/23 14:58:19;;;;;;;;;5.80;5.80;;;;;;;;5064620;28;8823;-84
2022/06/23 15:00:56;;;;;;;;;6.60;5.80;;;;;;;;5065261;28;8815;-81
2022/06/23 15:03:33;;;;;;;;;7.60;6.00;;;;;;;;5063342;28;8846;-85
2022/06/23 15:06:10;;;;;;;;;7.00;7.00;;;;;;;;5062189;28;8983;-85
2022/06/23 15:08:43;;;;;;;;;7.60;6.20;;;;;;;;5064194;28;8848;-83
2022/06/23 15:11:14;;;;;;;;;7.80;7.80;;;;;;;;5062111;28;9021;-83
2022/06/23 15:13:46;;;;;;;;;5.20;5.20;;;;;;;;5067052;28;8892;-82
2022/06/23 15:16:18;;;;;;;;;6.60;5.80;;;;;;;;5063806;28;8843;-85
2022/06/23 15:18:50;;;;;;;;;5.80;5.80;;;;;;;;5061165;28;8923;-84
2022/06/23 15:24:16;;;;;;;;;7.00;5.20;;;;;;;;5063657;28;8835;-82
2022/06/23 15:26:46;;;;;;;;;6.60;5.00;;;;;;;;5062093;28;9701;-85
2022/06/23 15:29:20;;;;;;;;;5.80;5.00;;;;;;;;5062906;28;8850;-81
2022/06/23 15:31:53;;;;;;;;;5.60;5.60;;;;;;;;5060620;28;8972;-82
2022/06/23 15:34:25;;;;;;;;;4.80;4.80;;;;;;;;5062079;28;8891;-82
2022/06/23 15:36:56;;;;;;;;;6.00;6.00;;;;;;;;5091571;28;8982;-83
2022/06/23 15:39:40;;;;;;;;;5.00;5.00;;;;;;;;5063724;28;9625;-81
2022/06/23 15:42:15;;;;;;;;;5.00;5.00;;;;;;;;5062475;28;8802;-77
2022/06/23 15:45:01;;;;;;;;;5.00;5.00;;;;;;;;5061332;28;8836;-86